Time;durP1;ratioP1;P1;durP2;ratioP2;P2;SDS_P1;SDS_P2;PMS_P1;PMS_P2;Temp;Humidity;BMP_temperature;BMP_pressure;BME280_temperature;BME280_humidity;BME280_pressure;Samples;Min_cycle;Max_cycle;Signal;HPM_P1;HPM_P2
2022/03/10 07:04:35;;;;;;;10.48;6.53;;;;;;;;;;10505813;28;20400;-84
2022/03/10 07:09:36;;;;;;;10.75;7.43;;;;;;;;;;10501990;28;20517;-85
2022/03/10 07:14:37;;;;;;;12.23;8.05;;;;;;;;;;10506374;28;20066;-85
2022/03/10 07:19:38;;;;;;;11.98;7.57;;;;;;;;;;10502398;28;20096;-84
2022/03/10 07:24:39;;;;;;;;;;;;;;;;;;10503555;28;20029;-84
2022/03/10 07:29:40;;;;;;;11.10;7.82;;;;;;;;;;10513652;28;19991;-85
2022/03/10 07:34:47;;;;;;;28.70;21.17;;;;;;;;;;10514988;28;20375;-85
2022/03/10 07:39:48;;;;;;;10.82;8.73;;;;;;;;;;10503535;28;20366;-87
2022/03/10 07:44:49;;;;;;;10.23;7.30;;;;;;;;;;10492383;28;20120;-87
2022/03/10 07:49:50;;;;;;;;;;;;;;;;;;10491918;28;20530;-87
2022/03/10 07:54:51;;;;;;;11.38;8.40;;;;;;;;;;10490469;28;19905;-87
2022/03/10 07:59:52;;;;;;;8.73;6.88;;;;;;;;;;10493451;28;20068;-87
2022/03/10 08:04:53;;;;;;;;;;;;;;;;;;10506178;28;20035;-83
2022/03/10 08:10:08;;;;;;;13.25;9.18;;;;;;;;;;10512803;28;20062;-82
2022/03/10 08:15:15;;;;;;;12.07;8.75;;;;;;;;;;10488380;28;20172;-82
2022/03/10 08:20:18;;;;;;;15.95;10.80;;;;;;;;;;10491371;28;20032;-82
2022/03/10 08:25:19;;;;;;;15.07;10.23;;;;;;;;;;10491451;28;20035;-82
2022/03/10 08:30:20;;;;;;;12.52;9.75;;;;;;;;;;10491141;28;20120;-82
2022/03/10 08:35:21;;;;;;;;;;;;;;;;;;10490527;28;20051;-82
2022/03/10 08:40:22;;;;;;;16.20;11.48;;;;;;;;;;10488224;28;19999;-82
2022/03/10 08:45:26;;;;;;;13.13;9.40;;;;;;;;;;10489447;28;20040;-82
2022/03/10 08:50:32;;;;;;;10.85;9.07;;;;;;;;;;10489698;28;20047;-82
2022/03/10 08:55:37;;;;;;;13.45;10.10;;;;;;;;;;10496933;28;20556;-82
2022/03/10 09:00:38;;;;;;;12.73;10.13;;;;;;;;;;10507668;28;20029;-81
2022/03/10 09:05:44;;;;;;;;;;;;;;;;;;10508313;28;20100;-81
2022/03/10 09:10:45;;;;;;;16.35;10.32;;;;;;;;;;10506990;28;19959;-82
2022/03/10 09:15:49;;;;;;;16.67;12.15;;;;;;;;;;10491313;28;20025;-82
2022/03/10 09:20:51;;;;;;;11.93;9.63;;;;;;;;;;10489717;28;20025;-82
2022/03/10 09:25:53;;;;;;;17.23;12.13;;;;;;;;;;10487723;28;20050;-82
2022/03/10 09:36:36;;;;;;;19.10;14.60;;;;;;;;;;10489370;28;20025;-82
2022/03/10 09:41:38;;;;;;;12.38;9.82;;;;;;;;;;10485178;28;20086;-82
2022/03/10 09:46:50;;;;;;;15.35;11.48;;;;;;;;;;10481759;28;20025;-82
2022/03/10 09:51:51;;;;;;;18.10;12.98;;;;;;;;;;10473656;28;20371;-84
2022/03/10 09:56:55;;;;;;;23.63;15.57;;;;;;;;;;10472569;28;20033;-84
2022/03/10 10:01:57;;;;;;;25.08;16.33;;;;;;;;;;10473503;28;20441;-83
2022/03/10 10:07:02;;;;;;;16.70;13.70;;;;;;;;;;10475569;28;20401;-83
2022/03/10 10:12:06;;;;;;;18.58;13.52;;;;;;;;;;10474562;28;20124;-82
2022/03/10 10:17:08;;;;;;;24.35;14.60;;;;;;;;;;10477640;28;20017;-81
2022/03/10 10:22:20;;;;;;;19.50;15.15;;;;;;;;;;10447624;28;20482;-82
2022/03/10 10:27:25;;;;;;;22.90;17.73;;;;;;;;;;10471331;28;20048;-81
2022/03/10 10:32:48;;;;;;;18.38;13.65;;;;;;;;;;10472097;28;20025;-81
2022/03/10 10:37:51;;;;;;;17.30;13.63;;;;;;;;;;10470425;28;20037;-83
2022/03/10 10:42:52;;;;;;;18.55;13.85;;;;;;;;;;10467875;28;20044;-83
2022/03/10 10:48:12;;;;;;;24.15;17.55;;;;;;;;;;10471611;28;20028;-81
2022/03/10 10:53:31;;;;;;;25.95;18.27;;;;;;;;;;10495392;28;20005;-81
2022/03/10 10:58:32;;;;;;;21.42;15.88;;;;;;;;;;10476937;28;20037;-82
2022/03/10 11:03:36;;;;;;;23.02;16.67;;;;;;;;;;10470726;28;20127;-80
2022/03/10 11:08:37;;;;;;;22.45;16.20;;;;;;;;;;10484618;28;20120;-80
2022/03/10 11:13:38;;;;;;;22.30;14.98;;;;;;;;;;10486593;28;20055;-81
2022/03/10 11:18:43;;;;;;;24.45;15.77;;;;;;;;;;10481154;28;20110;-79
2022/03/10 11:23:52;;;;;;;20.00;15.13;;;;;;;;;;10482890;28;20029;-81
2022/03/10 11:28:53;;;;;;;20.20;15.10;;;;;;;;;;10482192;28;20108;-80
2022/03/10 11:33:58;;;;;;;19.42;14.73;;;;;;;;;;10482213;28;20033;-79
2022/03/10 11:39:02;;;;;;;17.40;12.52;;;;;;;;;;10481477;28;20029;-80
2022/03/10 11:44:05;;;;;;;19.92;15.23;;;;;;;;;;10482586;28;20035;-80
2022/03/10 11:49:07;;;;;;;20.92;14.48;;;;;;;;;;10468952;28;20025;-80
2022/03/10 11:54:09;;;;;;;20.13;14.65;;;;;;;;;;10467603;28;20398;-80
2022/03/10 11:59:19;;;;;;;18.20;12.02;;;;;;;;;;10467968;28;20340;-80
2022/03/10 12:04:23;;;;;;;20.77;14.20;;;;;;;;;;10476590;28;20071;-80
2022/03/10 12:09:25;;;;;;;19.35;14.07;;;;;;;;;;10469684;28;20029;-80
2022/03/10 12:14:27;;;;;;;21.35;13.43;;;;;;;;;;10467245;28;20021;-78
2022/03/10 12:19:47;;;;;;;15.75;11.73;;;;;;;;;;10469818;22;20049;-79
2022/03/10 12:24:48;;;;;;;16.15;12.48;;;;;;;;;;10447352;28;20049;-80
2022/03/10 12:29:50;;;;;;;16.73;10.98;;;;;;;;;;10443109;28;20037;-80
2022/03/10 12:34:52;;;;;;;15.07;11.18;;;;;;;;;;10441903;28;20383;-78
2022/03/10 12:39:53;;;;;;;13.93;10.57;;;;;;;;;;10440972;28;20060;-79
2022/03/10 12:45:05;;;;;;;14.20;10.88;;;;;;;;;;10442807;28;20022;-79
2022/03/10 12:50:27;;;;;;;12.32;9.43;;;;;;;;;;10446058;28;20033;-79
2022/03/10 12:56:05;;;;;;;13.13;10.20;;;;;;;;;;10402557;28;20038;-79
2022/03/10 13:01:42;;;;;;;14.00;9.95;;;;;;;;;;10391342;28;20121;-81
2022/03/10 13:12:55;;;;;;;11.63;7.90;;;;;;;;;;10401659;28;20025;-81
2022/03/10 13:18:30;;;;;;;8.10;6.63;;;;;;;;;;10373466;28;20042;-82
2022/03/10 13:24:13;;;;;;;11.68;6.72;;;;;;;;;;10354581;28;20042;-80
2022/03/10 13:29:55;;;;;;;8.93;6.32;;;;;;;;;;10395346;28;20057;-81
2022/03/10 13:40:50;;;;;;;7.07;5.32;;;;;;;;;;10441260;28;20030;-79
2022/03/10 13:45:53;;;;;;;7.07;4.80;;;;;;;;;;10438736;28;20025;-80
2022/03/10 13:50:56;;;;;;;6.68;5.03;;;;;;;;;;10444892;28;20025;-80
2022/03/10 13:56:12;;;;;;;9.73;5.47;;;;;;;;;;10433001;28;20034;-79
2022/03/10 14:01:25;;;;;;;6.50;5.23;;;;;;;;;;10449296;28;20048;-80
2022/03/10 14:07:04;;;;;;;6.68;4.93;;;;;;;;;;10443806;28;20021;-81
2022/03/10 14:12:26;;;;;;;5.82;4.75;;;;;;;;;;10317129;28;20211;-81
2022/03/10 14:17:51;;;;;;;5.03;4.10;;;;;;;;;;10319852;28;20477;-83
2022/03/10 14:23:16;;;;;;;6.00;4.00;;;;;;;;;;10303443;28;20512;-81
2022/03/10 14:28:44;;;;;;;5.72;4.93;;;;;;;;;;10407085;28;20057;-80
2022/03/10 14:33:50;;;;;;;5.82;4.68;;;;;;;;;;10427741;28;20052;-81
2022/03/10 14:39:15;;;;;;;5.50;4.72;;;;;;;;;;10440943;28;20022;-81
2022/03/10 14:50:24;;;;;;;5.55;4.40;;;;;;;;;;10441976;28;20021;-81
2022/03/10 15:01:41;;;;;;;5.07;4.05;;;;;;;;;;10443195;28;20041;-81
2022/03/10 15:07:12;;;;;;;6.32;3.28;;;;;;;;;;10443019;28;20423;-81
2022/03/10 15:12:15;;;;;;;4.53;3.65;;;;;;;;;;10444339;28;20076;-80
2022/03/10 15:17:28;;;;;;;5.32;4.60;;;;;;;;;;10443818;28;20045;-82
2022/03/10 15:39:35;;;;;;;6.20;3.63;;;;;;;;;;10453815;28;20037;-81
2022/03/10 15:44:36;;;;;;;4.32;3.90;;;;;;;;;;10442139;28;20403;-80
2022/03/10 15:49:39;;;;;;;5.22;4.05;;;;;;;;;;10439567;28;20036;-82
2022/03/10 15:54:40;;;;;;;5.90;4.10;;;;;;;;;;10434169;28;20460;-79
2022/03/10 15:59:41;;;;;;;5.05;3.83;;;;;;;;;;10436724;28;20105;-81
2022/03/10 16:04:45;;;;;;;4.70;3.50;;;;;;;;;;10432107;28;20033;-80
2022/03/10 16:09:47;;;;;;;7.05;5.03;;;;;;;;;;10432403;28;20032;-81
2022/03/10 16:14:48;;;;;;;6.28;4.40;;;;;;;;;;10433822;28;20534;-81
2022/03/10 16:20:14;;;;;;;4.90;3.60;;;;;;;;;;10444881;28;20137;-81
2022/03/10 16:25:41;;;;;;;6.47;3.63;;;;;;;;;;10417585;28;20033;-80
2022/03/10 16:36:28;;;;;;;5.53;3.58;;;;;;;;;;10431831;28;20439;-81
2022/03/10 16:42:07;;;;;;;5.32;3.50;;;;;;;;;;10448351;28;20021;-80
2022/03/10 16:53:28;;;;;;;6.50;3.58;;;;;;;;;;10331699;28;20031;-81
2022/03/10 17:04:49;;;;;;;3.95;3.28;;;;;;;;;;10315083;28;20030;-82
2022/03/10 17:10:21;;;;;;;4.80;3.83;;;;;;;;;;10318683;28;20037;-79
2022/03/10 17:15:53;;;;;;;6.05;3.08;;;;;;;;;;10365275;28;20040;-83
2022/03/10 17:20:57;;;;;;;4.22;3.30;;;;;;;;;;10448419;28;20029;-80
